To NAV CANADA Home Page Login to a new session Search on AWWS site Feedback and Comments Disclaimer Vers la page française équivalente Tips FAQ What's new on the site To the Forecasts and Observations / NOTAM section To "File a Flight Plan" website Publications and other links Update of the User's profile FIC Telephone Numbers My Weather Data Folder Route Weather Data Regional Weather Data Local Weather Data To the Forecasts and Observations / NOTAM section
Request Generated 06/26/2017 at 03:31:51 UTC . Weather information available at that time is displayed.

METAR/TAF

ARVIAT/NU    (show WxCam)

METAR CYEK 260300Z AUTO 20013G18KT 9SM BKN065 BKN083 07/04 A2992 RMK
SLP135=
METAR CYEK 260200Z AUTO 20012KT 9SM BKN085 08/04 A2995 RMK SLP144=
METAR CYEK 260100Z AUTO 20013KT 9SM CLR 09/04 A2996 RMK SLP148=

TAF CYEK 252352Z 2600/2612 18008KT P6SM SCT050 BKN220
FM260100 20008KT P6SM BKN080 TEMPO 2601/2608 P6SM -SHRA BKN050
BECMG 2603/2605 VRB03KT
FM260800 15008KT P6SM -SHRA FEW006 BKN020 OVC040
RMK NXT FCST BY 260600Z=
Your time UTC time
Weather data provided by Environment Canada and NAV CANADA